Time;durP1;ratioP1;P1;durP2;ratioP2;P2;SDS_P1;SDS_P2;PMS_P1;PMS_P2;Temp;Humidity;BMP_temperature;BMP_pressure;BME280_temperature;BME280_humidity;BME280_pressure;Samples;Min_cycle;Max_cycle;Signal;HPM_P1;HPM_P2
2022/09/25 00:01:07;;;;;;;7.47;2.05;;;;;;;16.98;60.93;101416.97;5056467;28;20041;-63
2022/09/25 00:03:41;;;;;;;6.03;1.90;;;;;;;16.97;61.18;101421.53;5055201;28;20047;-63
2022/09/25 00:06:14;;;;;;;4.47;1.95;;;;;;;16.98;60.97;101417.81;5054205;28;20056;-62
2022/09/25 00:08:41;;;;;;;5.68;1.90;;;;;;;16.98;61.08;101414.25;5054899;28;20037;-64
2022/09/25 00:11:11;;;;;;;6.55;1.83;;;;;;;16.96;61.08;101418.94;5055039;28;20103;-63
2022/09/25 00:13:42;;;;;;;6.55;2.40;;;;;;;16.94;60.80;101421.81;5054500;28;20095;-63
2022/09/25 00:16:11;;;;;;;5.10;1.98;;;;;;;16.94;60.96;101419.09;5055062;28;20037;-63
2022/09/25 00:21:29;;;;;;;4.30;1.85;;;;;;;16.93;60.97;101422.78;5055315;28;20094;-63
2022/09/25 00:23:59;;;;;;;6.45;2.25;;;;;;;16.92;60.62;101425.63;5055126;28;20560;-63
2022/09/25 00:26:28;;;;;;;4.07;2.00;;;;;;;16.90;60.65;101431.19;5055233;28;20049;-64
2022/09/25 00:28:59;;;;;;;8.38;2.00;;;;;;;16.88;60.59;101416.06;5055478;28;20041;-63
2022/09/25 00:31:27;;;;;;;5.45;2.25;;;;;;;16.87;60.80;101425.19;5055139;28;20479;-63
2022/09/25 00:33:58;;;;;;;8.73;2.47;;;;;;;16.83;60.99;101421.88;5054067;28;20045;-63
2022/09/25 00:36:25;;;;;;;4.25;1.90;;;;;;;16.82;60.47;101433.75;5054235;28;20114;-63
2022/09/25 00:38:53;;;;;;;4.13;1.90;;;;;;;16.80;60.74;101431.16;5052635;28;20461;-63
2022/09/25 00:41:22;;;;;;;10.82;3.00;;;;;;;16.79;60.85;101428.59;5053995;28;20047;-63
2022/09/25 00:43:55;;;;;;;6.05;1.88;;;;;;;16.75;60.96;101425.28;5053877;28;20041;-62
2022/09/25 00:46:37;;;;;;;6.18;2.03;;;;;;;16.73;60.52;101424.56;5053837;28;20044;-63
2022/09/25 00:49:05;;;;;;;7.35;1.90;;;;;;;16.70;60.46;101426.69;5053656;28;20120;-63
2022/09/25 00:51:45;;;;;;;8.95;1.85;;;;;;;16.65;60.54;101418.94;5053617;28;20087;-63
2022/09/25 00:54:35;;;;;;;5.80;2.17;;;;;;;16.64;60.73;101414.47;5053984;28;20091;-63
2022/09/25 00:57:06;;;;;;;9.18;2.33;;;;;;;16.63;60.50;101412.75;5053097;28;20488;-63
2022/09/25 00:59:56;;;;;;;6.22;2.20;;;;;;;16.64;60.58;101419.03;5053497;28;20452;-64
2022/09/25 01:02:27;;;;;;;6.70;1.98;;;;;;;16.62;60.72;101421.03;5053523;28;20110;-63
2022/09/25 01:04:58;;;;;;;5.18;2.30;;;;;;;16.62;60.92;101429.16;5053786;28;20120;-64
2022/09/25 01:07:25;;;;;;;4.65;1.60;;;;;;;16.60;60.66;101428.44;5053507;28;20241;-63
2022/09/25 01:09:58;;;;;;;6.82;2.00;;;;;;;16.60;60.79;101431.16;5053450;28;20072;-64
2022/09/25 01:12:24;;;;;;;8.35;3.33;;;;;;;16.59;60.54;101432.16;5053328;28;20044;-63
2022/09/25 01:14:51;;;;;;;6.30;2.50;;;;;;;16.55;60.57;101426.13;5052141;28;20053;-63
2022/09/25 01:17:50;;;;;;;5.07;1.92;;;;;;;16.53;60.53;101431.69;5053159;28;20041;-63
2022/09/25 01:20:51;;;;;;;4.65;2.20;;;;;;;16.50;60.52;101426.53;5048705;28;20060;-63
2022/09/25 01:23:39;;;;;;;8.65;2.20;;;;;;;16.48;60.40;101433.06;5053006;28;20045;-64
2022/09/25 01:26:55;;;;;;;5.82;1.95;;;;;;;16.44;60.59;101434.34;5052899;28;20099;-63
2022/09/25 01:29:47;;;;;;;5.85;1.92;;;;;;;16.41;60.56;101432.75;5053091;28;20045;-63
2022/09/25 01:32:35;;;;;;;6.05;2.63;;;;;;;16.39;60.62;101445.56;5048827;28;20057;-63
2022/09/25 01:35:23;;;;;;;5.53;2.10;;;;;;;16.36;60.44;101439.56;5052853;28;20057;-63
2022/09/25 01:38:03;;;;;;;5.68;2.50;;;;;;;16.33;60.52;101432.53;5052475;28;20048;-63
2022/09/25 01:40:36;;;;;;;12.68;2.60;;;;;;;16.28;60.27;101436.63;5052884;28;20041;-64
2022/09/25 01:43:13;;;;;;;9.50;2.50;;;;;;;16.24;60.64;101444.16;5052578;28;20052;-63
2022/09/25 01:45:56;;;;;;;5.85;2.25;;;;;;;16.21;60.42;101439.00;5051359;28;20053;-63
2022/09/25 01:48:26;;;;;;;5.68;2.22;;;;;;;16.19;60.45;101441.84;5052829;28;20499;-63
2022/09/25 01:50:59;;;;;;;6.05;2.42;;;;;;;16.17;60.66;101448.38;5052775;28;20041;-63
2022/09/25 01:53:44;;;;;;;7.88;2.28;;;;;;;16.13;60.35;101450.50;5051935;28;20294;-63
2022/09/25 01:56:21;;;;;;;5.47;2.05;;;;;;;16.10;60.37;101449.88;5052510;28;20041;-62
2022/09/25 01:58:53;;;;;;;5.72;2.35;;;;;;;16.07;60.18;101447.44;5052493;28;20091;-63
2022/09/25 02:01:25;;;;;;;8.35;2.33;;;;;;;16.02;60.52;101460.50;5051208;28;20041;-63
2022/09/25 02:03:59;;;;;;;6.82;2.15;;;;;;;15.96;60.28;101451.06;5052650;28;20051;-63
2022/09/25 02:06:26;;;;;;;5.90;2.08;;;;;;;15.92;60.69;101448.72;5052214;28;20056;-63
2022/09/25 02:09:09;;;;;;;9.88;2.53;;;;;;;15.88;60.54;101454.41;5052187;28;20049;-63
2022/09/25 02:11:42;;;;;;;8.25;2.70;;;;;;;15.85;60.66;101459.22;5052198;28;20106;-65
2022/09/25 02:14:19;;;;;;;6.93;2.28;;;;;;;15.82;60.85;101454.91;5052633;28;20049;-63
2022/09/25 02:16:51;;;;;;;10.50;3.55;;;;;;;15.80;60.47;101453.31;5052228;28;20053;-63
2022/09/25 02:22:09;;;;;;;;;;;;;;;15.75;60.65;101458.28;5051988;28;20041;-64
2022/09/25 02:24:56;;;;;;;6.15;2.88;;;;;;;15.76;60.58;101450.00;5052298;28;19947;-63
2022/09/25 02:27:28;;;;;;;8.68;2.70;;;;;;;15.74;60.37;101456.53;5052601;28;20151;-64
2022/09/25 02:29:57;;;;;;;6.97;2.80;;;;;;;15.71;60.50;101454.94;5052229;28;20048;-63
2022/09/25 02:32:28;;;;;;;6.00;2.70;;;;;;;15.72;60.89;101458.53;5052121;28;20040;-64
2022/09/25 02:34:59;;;;;;;9.02;2.83;;;;;;;15.71;60.67;101459.50;5052198;28;20568;-63
2022/09/25 02:37:26;;;;;;;4.80;2.45;;;;;;;15.73;60.48;101449.41;5051973;28;20048;-63
2022/09/25 02:39:57;;;;;;;6.75;2.30;;;;;;;15.74;60.42;101456.53;5050312;28;20394;-63
2022/09/25 02:42:51;;;;;;;4.10;2.60;;;;;;;15.73;60.76;101455.69;5052009;28;20044;-63
2022/09/25 02:45:42;;;;;;;4.30;2.53;;;;;;;15.73;60.50;101460.25;5052524;28;20045;-63
2022/09/25 02:48:22;;;;;;;7.63;2.80;;;;;;;15.72;60.69;101453.97;5051973;28;20064;-63
2022/09/25 02:51:01;;;;;;;4.32;2.25;;;;;;;15.74;60.88;101451.13;5052425;28;20049;-62
2022/09/25 02:54:00;;;;;;;10.23;2.60;;;;;;;15.72;60.47;101444.97;5052249;28;20067;-63
2022/09/25 02:56:29;;;;;;;4.95;2.55;;;;;;;15.74;60.50;101445.72;5052495;28;20079;-63
2022/09/25 02:59:17;;;;;;;7.72;2.67;;;;;;;15.70;60.42;101445.09;5052063;28;20044;-63
2022/09/25 03:01:45;;;;;;;8.63;2.90;;;;;;;15.70;60.66;101444.25;5051935;28;20053;-64
2022/09/25 03:04:16;;;;;;;6.50;2.88;;;;;;;15.67;60.60;101437.25;5052362;28;20040;-63
2022/09/25 03:06:44;;;;;;;4.75;2.70;;;;;;;15.65;60.71;101441.06;5052566;28;20496;-63
2022/09/25 03:09:14;;;;;;;9.00;2.65;;;;;;;15.62;60.67;101441.31;5052429;28;20553;-62
2022/09/25 03:11:42;;;;;;;7.38;3.13;;;;;;;15.59;60.31;101442.41;5052099;28;20061;-63
2022/09/25 03:14:10;;;;;;;7.13;2.70;;;;;;;15.58;60.65;101437.97;5052427;28;20045;-63
2022/09/25 03:16:56;;;;;;;7.95;2.80;;;;;;;15.59;60.51;101431.56;5051588;28;20059;-63
2022/09/25 03:19:26;;;;;;;6.22;2.50;;;;;;;15.57;60.37;101426.28;5051185;28;20091;-63
2022/09/25 03:21:53;;;;;;;8.82;2.90;;;;;;;15.59;60.29;101434.28;5051267;28;20053;-64
2022/09/25 03:24:24;;;;;;;6.95;2.80;;;;;;;15.60;60.63;101438.72;5051193;28;20037;-63
2022/09/25 03:26:52;;;;;;;6.97;2.58;;;;;;;15.62;60.23;101438.59;5051001;28;20569;-63
2022/09/25 03:29:20;;;;;;;6.05;2.88;;;;;;;15.61;60.35;101431.47;5050655;28;20445;-63
2022/09/25 03:31:47;;;;;;;8.70;3.30;;;;;;;15.60;60.39;101432.44;5051640;28;20453;-63
2022/09/25 03:34:17;;;;;;;5.57;3.00;;;;;;;15.55;60.12;101432.78;5055452;28;20033;-63
2022/09/25 03:36:46;;;;;;;8.60;2.72;;;;;;;15.51;60.32;101440.28;5055446;28;20091;-64
2022/09/25 03:39:16;;;;;;;7.28;2.88;;;;;;;15.47;60.07;101440.66;5055168;28;20052;-63
2022/09/25 03:41:44;;;;;;;8.25;2.83;;;;;;;15.43;59.89;101445.47;5054949;28;20057;-63
2022/09/25 03:44:11;;;;;;;5.72;3.10;;;;;;;15.42;60.10;101440.19;5054604;28;20037;-63
2022/09/25 03:46:38;;;;;;;5.22;2.55;;;;;;;15.40;59.75;101434.91;5055077;28;20119;-63
2022/09/25 03:49:05;;;;;;;6.18;2.72;;;;;;;15.37;59.96;101439.72;5055008;28;20045;-63
2022/09/25 03:51:32;;;;;;;9.15;2.80;;;;;;;15.35;59.86;101438.97;5054975;28;20056;-63
2022/09/25 03:54:03;;;;;;;7.53;3.17;;;;;;;15.31;59.69;101440.22;5054934;28;20033;-62
2022/09/25 03:56:30;;;;;;;5.47;2.80;;;;;;;15.25;59.43;101430.75;5054695;28;20132;-63
2022/09/25 03:58:58;;;;;;;7.97;3.40;;;;;;;15.21;59.85;101432.84;5053445;28;20102;-63
2022/09/25 04:01:26;;;;;;;5.30;3.00;;;;;;;15.17;59.81;101423.25;5054088;28;20395;-62
2022/09/25 04:03:58;;;;;;;6.90;2.80;;;;;;;15.14;59.80;101433.47;5054651;28;20040;-63
2022/09/25 04:06:25;;;;;;;10.60;3.65;;;;;;;15.08;59.55;101428.53;5054763;28;20086;-63
2022/09/25 04:08:53;;;;;;;5.60;3.47;;;;;;;15.02;59.31;101437.16;5054701;28;20045;-63
2022/09/25 04:11:21;;;;;;;5.70;3.20;;;;;;;14.99;59.61;101432.00;5054548;28;20091;-63
2022/09/25 04:13:50;;;;;;;5.60;3.33;;;;;;;14.93;59.30;101436.91;5054669;28;20037;-63
2022/09/25 04:16:18;;;;;;;6.07;2.95;;;;;;;14.87;59.38;101428.44;5054205;28;20457;-64
2022/09/25 04:18:44;;;;;;;5.40;3.50;;;;;;;14.81;59.32;101423.47;5054072;28;20373;-63
2022/09/25 04:21:13;;;;;;;6.03;3.30;;;;;;;14.76;59.37;101428.38;5054332;28;20049;-63
2022/09/25 04:23:41;;;;;;;5.15;3.17;;;;;;;14.73;59.62;101436.75;5054217;28;20049;-64
2022/09/25 04:26:08;;;;;;;5.75;3.50;;;;;;;14.70;59.38;101431.56;5054372;28;20037;-63
2022/09/25 04:28:35;;;;;;;10.90;4.25;;;;;;;14.69;59.57;101427.16;5054415;28;20450;-63
2022/09/25 04:31:03;;;;;;;5.90;3.75;;;;;;;14.67;59.50;101429.97;5053040;28;20045;-64
2022/09/25 04:33:46;;;;;;;8.02;3.67;;;;;;;14.64;59.01;101432.94;5053746;28;20045;-63
2022/09/25 04:36:17;;;;;;;4.13;3.70;;;;;;;14.60;59.38;101437.72;5054143;28;20048;-64
2022/09/25 04:38:44;;;;;;;4.30;3.22;;;;;;;14.58;59.09;101441.50;5054216;28;20040;-64
2022/09/25 04:41:11;;;;;;;8.52;3.50;;;;;;;14.55;59.07;101442.63;5053699;28;20094;-64
2022/09/25 04:43:42;;;;;;;7.53;3.72;;;;;;;14.53;59.41;101441.00;5053449;28;20071;-63
2022/09/25 04:46:11;;;;;;;7.57;3.25;;;;;;;14.50;58.90;101438.56;5054136;28;20482;-63
2022/09/25 04:48:46;;;;;;;9.73;3.28;;;;;;;14.47;59.24;101439.66;5054171;28;20055;-63
2022/09/25 04:51:12;;;;;;;9.00;3.85;;;;;;;14.44;58.90;101436.34;5053860;28;20045;-64
2022/09/25 04:53:43;;;;;;;3.88;3.00;;;;;;;14.42;59.17;101438.25;5054060;28;20037;-63
2022/09/25 04:56:10;;;;;;;6.40;3.80;;;;;;;14.40;59.26;101432.13;5053874;28;20411;-63
2022/09/25 04:58:48;;;;;;;8.13;4.47;;;;;;;14.36;59.01;101434.19;5053619;28;20505;-63
2022/09/25 05:01:17;;;;;;;10.55;3.70;;;;;;;14.32;59.16;101428.16;5053518;28;20053;-63
2022/09/25 05:03:52;;;;;;;4.55;3.25;;;;;;;14.30;59.07;101431.97;5053731;28;20037;-63
2022/09/25 05:06:19;;;;;;;6.30;3.40;;;;;;;14.27;59.29;101424.09;5053355;28;20447;-63
2022/09/25 05:08:48;;;;;;;5.50;3.25;;;;;;;14.22;59.45;101419.06;5053931;28;20128;-63
2022/09/25 05:11:15;;;;;;;6.05;3.70;;;;;;;14.17;58.81;101425.78;5052266;28;20098;-64
2022/09/25 05:13:50;;;;;;;5.60;3.10;;;;;;;14.13;59.12;101424.31;5052894;28;20079;-64
2022/09/25 05:16:18;;;;;;;7.68;3.60;;;;;;;14.10;58.95;101432.59;5053564;28;20029;-63
2022/09/25 05:18:45;;;;;;;5.72;3.50;;;;;;;14.07;59.19;101432.84;5048274;28;20553;-63
2022/09/25 05:21:11;;;;;;;8.70;3.75;;;;;;;14.05;58.97;101424.00;5052960;28;20033;-63
2022/09/25 05:23:39;;;;;;;10.35;3.53;;;;;;;14.03;59.41;101431.34;5053282;28;20142;-64
2022/09/25 05:26:06;;;;;;;6.82;4.03;;;;;;;14.01;58.88;101428.78;5045390;28;20568;-63
2022/09/25 05:28:33;;;;;;;7.43;3.40;;;;;;;13.98;58.96;101424.47;5053342;28;20095;-63
2022/09/25 05:31:03;;;;;;;6.40;3.63;;;;;;;13.92;58.77;101430.34;5053752;28;20040;-63
2022/09/25 05:33:39;;;;;;;8.07;3.22;;;;;;;13.87;58.82;101427.13;5053255;28;20037;-64
2022/09/25 05:36:07;;;;;;;4.82;2.90;;;;;;;13.86;59.18;101420.00;5053522;28;20064;-63
2022/09/25 05:38:35;;;;;;;5.78;3.17;;;;;;;13.87;59.11;101426.25;5052749;28;20029;-63
2022/09/25 05:41:07;;;;;;;3.92;3.00;;;;;;;13.86;59.11;101424.53;5053211;28;20487;-63
2022/09/25 05:43:45;;;;;;;7.07;3.85;;;;;;;13.86;59.27;101421.84;5051800;28;20400;-63
2022/09/25 05:46:13;;;;;;;5.28;3.35;;;;;;;13.85;59.25;101423.69;5046305;28;20107;-64
2022/09/25 05:48:40;;;;;;;4.82;3.10;;;;;;;13.86;58.97;101430.78;5053517;28;20098;-63
2022/09/25 05:51:08;;;;;;;10.95;3.60;;;;;;;13.84;58.95;101421.94;5052440;28;20456;-63
2022/09/25 05:53:38;;;;;;;5.97;3.28;;;;;;;13.84;59.36;101421.94;5053449;28;20488;-63
2022/09/25 05:56:06;;;;;;;7.07;3.38;;;;;;;13.83;59.29;101436.44;5050976;28;20033;-62
2022/09/25 05:58:34;;;;;;;6.60;3.25;;;;;;;13.82;59.08;101432.00;5050944;28;20033;-63
2022/09/25 06:01:02;;;;;;;7.32;3.70;;;;;;;13.79;59.28;101428.69;5052222;28;20064;-63
2022/09/25 06:03:30;;;;;;;4.07;3.00;;;;;;;13.79;58.92;101425.97;5052092;28;20049;-64
2022/09/25 06:06:04;;;;;;;5.43;3.15;;;;;;;13.79;59.09;101437.63;5046631;28;20040;-63
2022/09/25 06:08:31;;;;;;;4.97;2.92;;;;;;;13.80;59.21;101441.19;5051213;28;20446;-63
2022/09/25 06:11:00;;;;;;;6.70;3.47;;;;;;;13.79;59.16;101434.94;5052191;28;20033;-63
2022/09/25 06:13:29;;;;;;;4.55;3.22;;;;;;;13.80;58.96;101444.75;5051792;28;20033;-64
2022/09/25 06:15:55;;;;;;;5.13;3.05;;;;;;;13.78;59.33;101438.63;5050656;28;20041;-64
2022/09/25 06:18:23;;;;;;;7.60;3.33;;;;;;;13.78;59.02;101444.00;5052498;28;20036;-63
2022/09/25 06:20:51;;;;;;;6.18;3.50;;;;;;;13.78;59.08;101437.75;5050898;28;20057;-63
2022/09/25 06:23:18;;;;;;;6.28;3.95;;;;;;;13.76;59.30;101435.16;5051063;28;20383;-63
2022/09/25 06:25:45;;;;;;;5.50;3.92;;;;;;;13.75;59.57;101440.69;5052321;28;20056;-63
2022/09/25 06:28:12;;;;;;;5.07;3.65;;;;;;;13.75;59.30;101446.94;5051388;28;20099;-64
2022/09/25 06:30:40;;;;;;;4.68;3.58;;;;;;;13.75;59.50;101438.84;5052052;28;20044;-64
2022/09/25 06:33:12;;;;;;;5.80;3.92;;;;;;;13.76;59.57;101440.56;5052024;28;20048;-62
2022/09/25 06:35:47;;;;;;;7.75;4.65;;;;;;;13.79;59.57;101444.88;5052112;28;20049;-63
2022/09/25 06:38:15;;;;;;;7.95;4.63;;;;;;;13.81;59.72;101441.09;5052093;28;20487;-63
2022/09/25 06:40:42;;;;;;;7.05;4.55;;;;;;;13.81;59.95;101441.09;5051889;28;20124;-64
2022/09/25 06:43:15;;;;;;;8.93;5.32;;;;;;;13.84;60.16;101448.09;5050558;28;20048;-64
2022/09/25 06:45:42;;;;;;;7.97;5.03;;;;;;;13.89;60.05;101443.22;5051431;28;20483;-63
2022/09/25 06:48:11;;;;;;;7.45;4.97;;;;;;;13.92;60.03;101440.28;5050149;28;20041;-63
2022/09/25 06:50:41;;;;;;;10.00;4.88;;;;;;;13.96;60.21;101448.03;5050982;28;20059;-64
2022/09/25 06:53:10;;;;;;;6.65;4.93;;;;;;;14.02;60.18;101446.69;5051159;28;20041;-63
2022/09/25 06:55:40;;;;;;;6.90;5.35;;;;;;;14.08;60.39;101446.22;5051680;28;20048;-64
2022/09/25 06:58:09;;;;;;;6.78;5.18;;;;;;;14.14;60.60;101447.63;5051442;28;20110;-63
2022/09/25 07:00:36;;;;;;;8.43;4.78;;;;;;;14.20;60.67;101453.44;5050439;28;20118;-63
2022/09/25 07:05:48;;;;;;;10.25;4.78;;;;;;;14.45;61.43;101448.88;5051723;28;20056;-63
2022/09/25 07:08:18;;;;;;;6.60;4.28;;;;;;;14.59;61.48;101449.50;5051101;28;20099;-63
2022/09/25 07:10:50;;;;;;;8.55;4.20;;;;;;;14.77;61.34;101451.75;5051264;28;20091;-63
2022/09/25 07:13:23;;;;;;;7.72;4.13;;;;;;;14.89;61.56;101454.38;5051066;28;20102;-63
2022/09/25 07:16:20;;;;;;;5.95;4.13;;;;;;;15.02;61.71;101462.38;5051298;28;20119;-63
2022/09/25 07:18:49;;;;;;;4.82;3.88;;;;;;;15.17;61.55;101462.97;5046317;28;20049;-63
2022/09/25 07:21:18;;;;;;;7.93;4.57;;;;;;;15.29;61.42;101463.81;5051127;28;20107;-64
2022/09/25 07:23:49;;;;;;;5.93;4.00;;;;;;;15.42;61.52;101461.84;5051000;28;20037;-63
2022/09/25 07:26:23;;;;;;;7.57;3.58;;;;;;;15.55;61.52;101459.84;5050986;28;20037;-63
2022/09/25 07:29:02;;;;;;;10.27;3.63;;;;;;;15.72;61.15;101462.09;5050956;28;20107;-63
2022/09/25 07:31:31;;;;;;;5.50;3.50;;;;;;;15.92;61.70;101464.97;5050833;28;20052;-67
2022/09/25 07:34:07;;;;;;;7.32;3.15;;;;;;;16.10;61.19;101458.88;5050516;28;20094;-63
2022/09/25 07:36:37;;;;;;;7.20;3.45;;;;;;;16.35;61.24;101463.09;5021979;28;20054;-63
2022/09/25 07:39:04;;;;;;;5.05;3.63;;;;;;;16.56;60.93;101454.97;5042463;28;20044;-64
2022/09/25 07:41:31;;;;;;;4.95;3.10;;;;;;;16.80;60.73;101457.44;5050647;28;20956;-67
2022/09/25 07:44:01;;;;;;;8.27;3.70;;;;;;;17.00;60.53;101461.97;5049744;28;20053;-65
2022/09/25 07:46:47;;;;;;;8.20;3.33;;;;;;;17.19;60.13;101460.34;5050535;28;20460;-65
2022/09/25 07:49:14;;;;;;;4.82;3.10;;;;;;;17.36;60.21;101466.00;5051129;28;20052;-65
2022/09/25 07:51:41;;;;;;;5.20;2.92;;;;;;;17.55;59.92;101462.47;5051052;28;20103;-64
2022/09/25 07:54:10;;;;;;;6.05;2.80;;;;;;;17.74;59.66;101462.53;5051373;28;20037;-64
2022/09/25 07:56:37;;;;;;;7.20;2.90;;;;;;;17.88;59.83;101465.88;5050680;28;20566;-64
2022/09/25 07:59:04;;;;;;;4.00;2.72;;;;;;;17.96;59.24;101466.03;5051353;28;20047;-64
2022/09/25 08:01:30;;;;;;;5.35;2.60;;;;;;;17.97;58.87;101467.75;5051138;28;20087;-65
2022/09/25 08:03:58;;;;;;;5.18;2.45;;;;;;;18.05;58.92;101459.75;5051351;28;20048;-64
2022/09/25 08:06:25;;;;;;;4.88;2.50;;;;;;;18.15;58.97;101457.88;5050700;28;20056;-64
2022/09/25 08:08:51;;;;;;;8.98;2.25;;;;;;;18.26;58.91;101463.19;5051283;28;20045;-65
2022/09/25 08:11:18;;;;;;;3.60;2.40;;;;;;;18.33;58.61;101455.31;5051341;28;20045;-64
2022/09/25 08:13:48;;;;;;;3.47;2.03;;;;;;;18.43;58.29;101461.59;5050560;28;20465;-64
2022/09/25 08:16:17;;;;;;;3.50;1.65;;;;;;;18.55;58.33;101462.28;5050199;28;20052;-63
2022/09/25 08:18:45;;;;;;;6.35;1.88;;;;;;;18.65;58.01;101452.31;5051006;28;20045;-64
2022/09/25 08:21:17;;;;;;;5.90;1.88;;;;;;;18.81;58.17;101458.00;5054179;28;20045;-64
2022/09/25 08:23:52;;;;;;;3.20;1.45;;;;;;;18.95;57.81;101462.97;5053930;28;20507;-64
2022/09/25 08:26:20;;;;;;;3.33;1.70;;;;;;;19.07;57.50;101454.63;5055130;28;20041;-64
2022/09/25 08:28:46;;;;;;;2.47;1.60;;;;;;;19.21;57.71;101454.97;5055048;28;20557;-64
2022/09/25 08:31:13;;;;;;;4.97;1.48;;;;;;;19.35;57.46;101451.78;5055329;28;20060;-63
2022/09/25 08:33:46;;;;;;;6.85;1.70;;;;;;;19.46;56.83;101450.72;5055154;28;20166;-65
2022/09/25 08:36:13;;;;;;;4.03;1.30;;;;;;;19.50;56.68;101454.88;5054516;28;20056;-63
2022/09/25 08:38:40;;;;;;;5.05;1.40;;;;;;;19.53;56.41;101457.31;5054075;28;20403;-64
2022/09/25 08:41:14;;;;;;;3.60;1.63;;;;;;;19.59;56.30;101451.25;5054096;28;20043;-64
2022/09/25 08:43:59;;;;;;;5.05;1.75;;;;;;;19.64;55.93;101445.34;5053848;28;20044;-64
2022/09/25 08:50:21;;;;;;;2.78;1.67;;;;;;;19.80;55.88;101461.88;5053897;28;20041;-63
2022/09/25 08:52:53;;;;;;;5.40;1.55;;;;;;;19.87;55.70;101456.66;5053769;28;20091;-64
2022/09/25 08:56:13;;;;;;;5.68;1.77;;;;;;;19.91;55.27;101460.78;5054035;28;20040;-64
2022/09/25 08:58:25;;;;;;;8.80;2.30;;;;;;;19.93;54.76;101456.03;5053214;28;20044;-64
2022/09/25 09:00:53;;;;;;;3.53;1.73;;;;;;;19.93;54.82;101459.63;5053426;28;20353;-64
2022/09/25 09:03:24;;;;;;;7.38;2.20;;;;;;;19.97;55.22;101455.56;5053968;28;20041;-64
2022/09/25 09:05:58;;;;;;;6.60;2.72;;;;;;;20.04;54.77;101460.41;5053365;28;20099;-63
2022/09/25 09:08:28;;;;;;;3.05;1.73;;;;;;;20.06;54.73;101455.66;5053859;28;20053;-64
2022/09/25 09:11:07;;;;;;;5.30;2.17;;;;;;;20.15;54.66;101455.63;5053511;28;20597;-66
2022/09/25 09:14:03;;;;;;;5.95;2.63;;;;;;;20.29;54.45;101446.88;5052654;28;20045;-65
2022/09/25 09:16:36;;;;;;;7.22;2.22;;;;;;;20.42;54.30;101451.09;5053611;28;20045;-65
2022/09/25 09:19:05;;;;;;;5.50;2.28;;;;;;;20.53;54.24;101443.50;5052196;28;20049;-66
2022/09/25 09:21:46;;;;;;;4.93;1.50;;;;;;;20.62;53.57;101442.56;5053654;28;20033;-66
2022/09/25 09:24:50;;;;;;;3.83;1.30;;;;;;;20.73;53.81;101435.13;5053658;28;20479;-65
2022/09/25 09:27:19;;;;;;;5.10;1.40;;;;;;;20.77;53.33;101431.91;5034152;28;20119;-66
2022/09/25 09:30:22;;;;;;;3.38;1.20;;;;;;;20.78;53.01;101430.03;5033482;28;20557;-66
2022/09/25 09:33:13;;;;;;;4.65;1.50;;;;;;;20.89;53.13;101436.09;5034815;28;20053;-65
2022/09/25 09:36:17;;;;;;;6.13;1.40;;;;;;;20.93;52.77;101437.50;5033545;28;20450;-64
2022/09/25 09:38:57;;;;;;;4.13;1.25;;;;;;;20.93;52.16;101433.91;5033533;28;20046;-64
2022/09/25 09:41:55;;;;;;;4.05;1.45;;;;;;;20.93;52.30;101431.19;5033642;28;20041;-64
2022/09/25 09:44:36;;;;;;;4.95;1.33;;;;;;;20.96;52.18;101430.84;5047099;28;20091;-64
2022/09/25 09:47:32;;;;;;;4.38;1.25;;;;;;;20.94;51.94;101436.47;5053427;28;20091;-64
2022/09/25 09:50:35;;;;;;;3.90;1.08;;;;;;;20.90;51.63;101436.97;5053310;28;20095;-65
2022/09/25 09:53:40;;;;;;;2.47;1.10;;;;;;;20.92;51.46;101433.06;5045248;28;20053;-64
2022/09/25 09:56:15;;;;;;;5.85;1.23;;;;;;;20.96;51.45;101430.00;5049994;28;20504;-64
2022/09/25 09:58:55;;;;;;;4.05;1.10;;;;;;;20.95;51.43;101418.22;5053296;28;20041;-65
2022/09/25 10:01:25;;;;;;;4.18;1.20;;;;;;;20.97;51.55;101429.84;5051948;28;20095;-64
2022/09/25 10:04:12;;;;;;;3.03;1.00;;;;;;;21.00;51.42;101417.72;5052909;28;20483;-65
2022/09/25 10:06:51;;;;;;;5.88;0.95;;;;;;;20.99;50.92;101421.47;5052538;28;20159;-64
2022/09/25 10:09:18;;;;;;;6.82;0.98;;;;;;;20.96;51.02;101428.13;5051838;28;20037;-65
2022/09/25 10:11:51;;;;;;;2.88;0.90;;;;;;;20.90;50.85;101426.03;5051657;28;20045;-65
2022/09/25 10:14:21;;;;;;;3.50;0.73;;;;;;;20.83;50.89;101425.84;5053077;28;20037;-65
2022/09/25 10:16:49;;;;;;;2.97;0.93;;;;;;;20.77;51.02;101420.13;5052963;28;20037;-64
2022/09/25 10:19:19;;;;;;;3.70;0.80;;;;;;;20.76;50.66;101424.72;5053033;28;20049;-64
2022/09/25 10:22:04;;;;;;;2.50;0.90;;;;;;;20.80;50.44;101420.66;5052793;28;20495;-65
2022/09/25 10:24:53;;;;;;;4.80;0.90;;;;;;;20.91;50.19;101405.91;5052788;28;20462;-65
2022/09/25 10:27:44;;;;;;;5.05;0.90;;;;;;;21.00;49.91;101407.66;5052782;28;20045;-65
2022/09/25 10:30:13;;;;;;;5.53;1.38;;;;;;;21.13;50.05;101407.22;5052807;28;20408;-65
2022/09/25 10:33:00;;;;;;;3.92;1.02;;;;;;;21.26;49.58;101410.38;5051105;28;20045;-65
2022/09/25 10:35:35;;;;;;;3.00;1.00;;;;;;;21.38;49.39;101400.00;5052770;28;20025;-66
2022/09/25 10:38:03;;;;;;;3.38;0.93;;;;;;;21.39;49.08;101412.63;5051761;28;20108;-65
2022/09/25 10:40:34;;;;;;;2.47;0.70;;;;;;;21.38;49.03;101411.78;5052828;28;20384;-66
2022/09/25 10:43:22;;;;;;;3.38;0.90;;;;;;;21.42;48.49;101404.97;5051675;28;20041;-65
2022/09/25 10:46:08;;;;;;;2.25;0.70;;;;;;;21.52;48.58;101410.28;5053089;28;20059;-65
2022/09/25 10:51:23;;;;;;;3.75;0.70;;;;;;;21.59;48.08;101410.50;5052376;28;20486;-65
2022/09/25 10:54:08;;;;;;;3.35;0.70;;;;;;;21.54;48.13;101406.34;5052469;28;20045;-65
2022/09/25 10:56:37;;;;;;;;;;;;;;;21.50;47.91;101410.44;5053584;28;20095;-65
2022/09/25 10:59:13;;;;;;;3.83;0.80;;;;;;;21.45;48.01;101412.81;5052724;28;19921;-64
2022/09/25 11:01:42;;;;;;;4.53;0.80;;;;;;;21.41;48.02;101402.38;5052202;28;20086;-65
2022/09/25 11:04:17;;;;;;;2.17;0.93;;;;;;;21.35;47.24;101403.91;5052859;28;20503;-66
2022/09/25 11:06:57;;;;;;;2.63;0.40;;;;;;;21.33;47.35;101399.63;5051173;28;20040;-66
2022/09/25 11:09:26;;;;;;;2.15;1.02;;;;;;;21.34;47.19;101395.88;5051541;28;20103;-65
2022/09/25 11:12:06;;;;;;;5.50;0.73;;;;;;;21.41;47.10;101399.66;5051460;28;20057;-65
2022/09/25 11:14:36;;;;;;;2.13;0.57;;;;;;;21.53;46.73;101399.19;5052731;28;20098;-65
2022/09/25 11:17:05;;;;;;;3.55;0.63;;;;;;;21.66;46.76;101397.88;5051738;28;20508;-65
2022/09/25 11:19:37;;;;;;;2.45;0.60;;;;;;;21.82;46.76;101396.03;5050966;28;20043;-65
2022/09/25 11:22:12;;;;;;;2.67;0.82;;;;;;;22.02;46.83;101392.97;5049760;28;20103;-65
2022/09/25 11:24:50;;;;;;;2.83;0.65;;;;;;;22.14;45.88;101402.56;5051139;28;20041;-66
2022/09/25 11:27:25;;;;;;;1.98;0.75;;;;;;;22.18;45.74;101402.06;5050772;28;20438;-65
2022/09/25 11:30:11;;;;;;;2.78;0.70;;;;;;;22.29;45.74;101400.00;5050778;28;20479;-66
2022/09/25 11:32:38;;;;;;;2.75;0.77;;;;;;;22.44;45.64;101396.44;5050660;28;20120;-65
2022/09/25 11:35:49;;;;;;;2.90;0.80;;;;;;;22.61;45.15;101394.53;5050939;28;20388;-65
2022/09/25 11:41:10;;;;;;;2.15;0.68;;;;;;;22.79;45.23;101392.41;5050793;28;20041;-66
2022/09/25 11:41:21;;;;;;;2.70;0.80;;;;;;;22.97;44.75;101384.00;5042926;28;20077;-66
2022/09/25 11:44:12;;;;;;;5.90;1.25;;;;;;;23.11;44.33;101382.44;5050844;28;20357;-65
2022/09/25 11:46:49;;;;;;;0.93;0.32;;;;;;;23.20;44.28;101378.63;5050675;28;20057;-66
2022/09/25 11:49:26;;;;;;;4.00;0.80;;;;;;;23.19;43.79;101382.41;5050484;28;20589;-66
2022/09/25 11:52:12;;;;;;;1.67;0.70;;;;;;;23.10;43.67;101372.50;5050424;28;20037;-66
2022/09/25 11:54:53;;;;;;;2.42;0.70;;;;;;;22.98;43.45;101369.28;5055021;28;20079;-65
2022/09/25 11:57:51;;;;;;;3.60;0.70;;;;;;;22.88;43.31;101367.78;5054752;28;20102;-66
2022/09/25 12:00:28;;;;;;;2.60;0.68;;;;;;;22.81;43.37;101368.47;5054503;28;20045;-65
2022/09/25 12:02:55;;;;;;;2.40;1.08;;;;;;;22.78;43.21;101365.22;5054023;28;20458;-65
2022/09/25 12:05:56;;;;;;;2.88;0.80;;;;;;;22.67;42.87;101363.69;5054674;28;20542;-65
2022/09/25 12:08:40;;;;;;;3.05;0.80;;;;;;;22.56;42.74;101360.47;5054428;28;20040;-65
2022/09/25 12:11:27;;;;;;;2.30;0.82;;;;;;;22.41;42.68;101352.13;5054371;28;20114;-65